»·PEaware :: N343GE KSMF-KJAC

N343GE :: KSMF-KJAC

FLIGHT INFORMATION

Flight Status: Arrived
Operator: Privately registered:
United States
More flights under this callsign
Pilot: Hyatt B. (30410)
Aircraft: BEECH AIRCRAFT PREMIER
(PRM1)
More flights by this aircraft type
Origin: KSMF Sacramento Intl
United States
Destination: KJAC Jackson Hole
United States
More flights between these airports :: More routes between these airports
Route: +SCTWN3 MACUS WATBU
File this flight plan on PilotEdge
Remarks:
Altitude:
(Current/Filed)
41,000ft
Speed:
(Current/Filed)
430kts
Departed: 28-Jul-20 07:29 PM
Arrived: 28-Jul-20 09:12 PM
Distance/Time
Traveled:
571nm/1:43
Distance/Time
To Go:
Arrived

Flight Plot

Page will automatically refresh every two minutes.

Flight plan parsing failed; only flown route is shown


Map Options




Map Legend


Flown Route
Filed Route
Departure Airport
Arrival Airport
Navaid (VOR, NDB)
Fix

Horizontal Profiles

Position Reports

Time Latitude Longitude Heading Altitude Ground
Speed
28-Jul-20 19:09 38.690951 -121.596075 84 29ft 0kts
28-Jul-20 19:10 38.690951 -121.596075 84 29ft 0kts
28-Jul-20 19:11 38.690951 -121.596075 84 29ft 0kts
28-Jul-20 19:12 38.690951 -121.596075 84 29ft 0kts
28-Jul-20 19:13 38.690951 -121.596075 84 29ft 0kts
28-Jul-20 19:14 38.690951 -121.596075 84 29ft 0kts
28-Jul-20 19:15 38.690951 -121.596075 84 29ft 0kts
28-Jul-20 19:16 38.690951 -121.596075 84 29ft 0kts
28-Jul-20 19:17 38.690951 -121.596075 84 29ft 0kts
28-Jul-20 19:18 38.690951 -121.596075 84 29ft 0kts
28-Jul-20 19:19 38.690880 -121.595989 179 29ft 0kts
28-Jul-20 19:20 38.690880 -121.595989 179 29ft 0kts
28-Jul-20 19:21 38.690642 -121.596421 256 28ft 7kts
28-Jul-20 19:22 38.692255 -121.598713 0 27ft 14kts
28-Jul-20 19:23 38.696244 -121.598650 1 26ft 12kts
28-Jul-20 19:24 38.699873 -121.598587 0 27ft 14kts
28-Jul-20 19:25 38.703501 -121.598524 0 27ft 12kts
28-Jul-20 19:26 38.706586 -121.598465 0 28ft 9kts
28-Jul-20 19:27 38.707207 -121.599864 269 28ft 0kts
28-Jul-20 19:28 38.700800 -121.601202 180 27ft 110kts
28-Jul-20 19:29 38.656802 -121.584783 110 2427ft 234kts
28-Jul-20 19:30 38.641227 -121.499604 106 5176ft 255kts
28-Jul-20 19:31 38.631871 -121.408337 89 7621ft 266kts
28-Jul-20 19:32 38.634495 -121.307600 89 9912ft 287kts
28-Jul-20 19:33 38.637311 -121.196305 89 11922ft 329kts
28-Jul-20 19:34 38.640247 -121.078312 91 14538ft 337kts
28-Jul-20 19:35 38.643027 -120.958273 92 16806ft 339kts
28-Jul-20 19:36 38.645735 -120.836057 92 18208ft 349kts
28-Jul-20 19:37 38.654113 -120.708273 70 19329ft 386kts
28-Jul-20 19:38 38.720950 -120.596797 52 20707ft 405kts
28-Jul-20 19:39 38.795175 -120.485145 52 21925ft 417kts
28-Jul-20 19:40 38.870841 -120.370824 52 23052ft 427kts
28-Jul-20 19:41 38.948711 -120.252234 49 24058ft 438kts
28-Jul-20 19:42 39.027268 -120.132863 46 25395ft 435kts
28-Jul-20 19:43 39.105349 -120.013936 46 26332ft 440kts
28-Jul-20 19:44 39.184861 -119.892002 46 27171ft 445kts
28-Jul-20 19:45 39.263972 -119.770215 46 28154ft 447kts
28-Jul-20 19:46 39.344098 -119.646370 46 28888ft 453kts
28-Jul-20 19:47 39.424248 -119.522003 46 29832ft 453kts
28-Jul-20 19:48 39.505318 -119.395708 46 30530ft 459kts
28-Jul-20 19:49 39.574827 -119.287030 47 31276ft 459kts
28-Jul-20 19:50 39.638024 -119.187873 47 31728ft 463kts
28-Jul-20 19:51 39.720181 -119.058506 47 32252ft 468kts
28-Jul-20 19:52 39.802780 -118.927865 47 32814ft 470kts
28-Jul-20 19:53 39.884593 -118.795090 52 33320ft 473kts
28-Jul-20 19:54 39.961025 -118.656633 51 33866ft 472kts
28-Jul-20 19:55 40.036887 -118.515883 51 34252ft 475kts
28-Jul-20 19:56 40.112873 -118.374362 51 34631ft 478kts
28-Jul-20 19:57 40.186587 -118.236444 52 34904ft 480kts
28-Jul-20 19:58 40.262322 -118.094054 52 35824ft 466kts
28-Jul-20 19:59 40.335381 -117.956149 52 36957ft 452kts
28-Jul-20 20:00 40.405281 -117.823624 52 38383ft 435kts
28-Jul-20 20:01 40.474439 -117.691984 52 39017ft 440kts
28-Jul-20 20:03 40.544044 -117.558892 52 39611ft 444kts
28-Jul-20 20:04 40.614195 -117.424154 52 40125ft 448kts
28-Jul-20 20:05 40.684739 -117.288128 53 40543ft 452kts
28-Jul-20 20:06 40.755759 -117.150534 53 40908ft 455kts
28-Jul-20 20:07 40.827164 -117.011568 53 41066ft 462kts
28-Jul-20 20:08 40.899466 -116.870213 52 41066ft 467kts
28-Jul-20 20:09 40.972341 -116.727148 52 41067ft 469kts
28-Jul-20 20:10 41.041455 -116.590847 53 41069ft 469kts
28-Jul-20 20:11 41.113337 -116.448404 53 41079ft 468kts
28-Jul-20 20:12 41.184879 -116.305939 54 41080ft 466kts
28-Jul-20 20:13 41.256285 -116.163124 54 41081ft 465kts
28-Jul-20 20:14 41.327574 -116.019878 54 41081ft 464kts
28-Jul-20 20:15 41.398360 -115.876975 54 41083ft 464kts
28-Jul-20 20:16 41.469038 -115.733614 54 41083ft 464kts
28-Jul-20 20:17 41.539646 -115.589720 54 41084ft 464kts
28-Jul-20 20:17 41.598329 -115.469591 54 41085ft 464kts
28-Jul-20 20:19 41.680403 -115.300825 55 41084ft 464kts
28-Jul-20 20:20 41.750496 -115.155919 55 41097ft 462kts
28-Jul-20 20:20 41.808234 -115.036047 55 41101ft 460kts
28-Jul-20 20:22 41.888623 -114.868339 54 41100ft 457kts
28-Jul-20 20:23 41.956996 -114.724967 54 41102ft 456kts
28-Jul-20 20:23 42.013691 -114.605557 54 41103ft 455kts
28-Jul-20 20:25 42.092852 -114.438059 54 41015ft 457kts
28-Jul-20 20:25 42.150187 -114.316202 55 40047ft 466kts
28-Jul-20 20:26 42.219181 -114.168808 55 38852ft 466kts
28-Jul-20 20:28 42.299315 -113.996711 55 37452ft 460kts
28-Jul-20 20:28 42.354658 -113.877209 55 37089ft 437kts
28-Jul-20 20:29 42.414505 -113.747588 55 37088ft 414kts
28-Jul-20 20:30 42.473979 -113.618183 55 37090ft 398kts
28-Jul-20 20:31 42.531819 -113.491822 55 37096ft 399kts
28-Jul-20 20:32 42.592134 -113.359432 55 37100ft 426kts
28-Jul-20 20:33 42.655477 -113.219742 56 37097ft 442kts
28-Jul-20 20:34 42.720294 -113.076101 56 37128ft 451kts
28-Jul-20 20:35 42.786182 -112.929419 56 37138ft 457kts
28-Jul-20 20:36 42.852610 -112.780765 56 37139ft 460kts
28-Jul-20 20:37 42.918911 -112.631573 56 37139ft 462kts
28-Jul-20 20:38 42.984981 -112.482227 56 37142ft 459kts
28-Jul-20 20:39 43.050255 -112.333956 57 37138ft 451kts
28-Jul-20 20:40 43.113956 -112.188395 57 36105ft 445kts
28-Jul-20 20:41 43.176541 -112.044789 57 34398ft 434kts
28-Jul-20 20:42 43.237499 -111.904177 57 32699ft 425kts
28-Jul-20 20:43 43.296875 -111.766561 57 31001ft 417kts
28-Jul-20 20:44 43.355315 -111.630585 57 29310ft 410kts
28-Jul-20 20:45 43.412738 -111.496257 57 27409ft 409kts
28-Jul-20 20:46 43.470171 -111.361304 57 25320ft 408kts
28-Jul-20 20:47 43.543262 -111.252260 31 24157ft 379kts
28-Jul-20 20:48 43.631511 -111.172795 31 22370ft 382kts
28-Jul-20 20:49 43.720304 -111.093129 31 20467ft 379kts
28-Jul-20 20:50 43.808043 -111.014172 31 18562ft 375kts
28-Jul-20 20:51 43.895088 -110.936152 31 16477ft 373kts
28-Jul-20 20:52 43.980386 -110.860534 30 14996ft 345kts
28-Jul-20 20:53 44.057265 -110.792267 30 14976ft 315kts
28-Jul-20 20:54 44.124463 -110.731164 38 14960ft 307kts
28-Jul-20 20:55 44.163939 -110.623496 83 13687ft 331kts
28-Jul-20 20:56 44.143949 -110.502521 111 12970ft 289kts
28-Jul-20 20:57 44.099365 -110.439365 171 12966ft 187kts
28-Jul-20 20:58 44.052199 -110.447673 190 12370ft 189kts
28-Jul-20 20:59 44.006885 -110.482747 220 11746ft 186kts
28-Jul-20 21:00 43.969980 -110.527162 220 11741ft 169kts
28-Jul-20 21:01 43.934988 -110.569288 220 11746ft 166kts
28-Jul-20 21:02 43.893251 -110.597472 199 11824ft 170kts
28-Jul-20 21:03 43.845621 -110.621015 199 11296ft 200kts
28-Jul-20 21:04 43.797363 -110.644779 199 10297ft 153kts
28-Jul-20 21:05 43.760706 -110.662657 199 9513ft 133kts
28-Jul-20 21:06 43.732377 -110.676524 200 8914ft 132kts
28-Jul-20 21:07 43.697734 -110.693543 200 8195ft 133kts
28-Jul-20 21:08 43.662651 -110.710718 199 7463ft 134kts
28-Jul-20 21:09 43.627311 -110.727990 199 6735ft 135kts
28-Jul-20 21:10 43.601504 -110.740601 198 6420ft 46kts
28-Jul-20 21:11 43.599541 -110.740135 60 6417ft 4kts
28-Jul-20 21:12 43.599160 -110.738734 198 6417ft 0kts
28-Jul-20 21:13 43.599160 -110.738734 198 6417ft 0kts
28-Jul-20 21:14 43.599160 -110.738734 198 6417ft 0kts
28-Jul-20 21:15 43.599160 -110.738734 198 6417ft 0kts
28-Jul-20 21:16 43.599160 -110.738734 198 6417ft 0kts
28-Jul-20 21:17 43.599160 -110.738734 198 6417ft 0kts
28-Jul-20 21:18 43.599160 -110.738734 198 6417ft 0kts
28-Jul-20 21:19 43.599160 -110.738734 198 6417ft 0kts
28-Jul-20 21:20 43.599160 -110.738734 198 6417ft 0kts

Navigation Log

Ident Type
Flight plan parsing failed, navigation log unavailable